Nipawin Airport
CYBU : now visible

Airfield :











YOU CAN JOIN US ON...

 
LOGIN :

Register | Disclaimer

   EN    FR    IT 

 









Legend :    VFR   Marginal VFR   IFR   Intensive IFR   Very Intensive IFR
Visi :
Ceiling :
>= 8 km
>= 3000ft
5 to 8 km
1000 to 3000 ft
1500m to 5 km
500 to 1000 ft
800 to 1500m
200 to 500 ft
< 800m
< 200 ft
Symbols :   Thunderstorms  Fog  Heavy snow  Heavy precipitations  Wind > 20 kt






- Airport Elevation : 1220 ft


CYBU - Nipawin

CURRENT METAR :
  • 151511Z AUTO 30009KT 9SM BKN029 M17/M21 A2974 RMK SLP112

EXPIRED METARs :
  • 151500Z AUTO 30009G16KT 9SM -SN OVC029 M17/M20 A2974 RMK SLP110
  • 151452Z AUTO 30012KT 6SM -SN OVC029 M16/M20 A2973 RMK SLP109
  • 151441Z AUTO 31012KT 5SM -SN OVC029 M16/M19 A2973 RMK SLP108
  • 151416Z AUTO 29016KT 9SM BKN033 OVC060 M15/M20 A2972 RMK SLP104
  • 151400Z AUTO 29016KT 9SM -SN SCT033 OVC060 M15/M20 A2971 RMK SLP102
  • 151300Z AUTO 29012G17KT 9SM -SN OVC048 M15/M19 A2970 RMK SLP099

TAF N/A



MET'MAP, your aeronautical weather chart ! - Copyright ORBIFLY December 2007 - Disclaimer

ORBIFLY MET'MAP TEAM :

Programming & Development : Alexandra Zaïnal
Concept & original design : Baudouin d'Aumeries
Assistance for programming : Marc-Olivier Méhu
Technical & hardware support : Manuel Goepfert

Contact : metmap@orbifly.com




SOURCES & CREDITS :

   NOAA       Earth
Advisory